<?xml version="1.0" encoding="UTF-8" standalone="no" ?>
<gpx xmlns="http://www.topografix.com/GPX/1/1" xmlns:xsi="http://www.w3.org/2001/XMLSchema-instance" xsi:schemaLocation="http://www.topografix.com/GPX/1/1 http://www.topografix.com/GPX/1/1/gpx.xsd" version="1.1" creator="VisuGPX - https://www.visugpx.com">
  <metadata>
    <name>1 févr. 2020 à 10:13:04</name>
    <desc><![CDATA[1 févr. 2020 à 10:13:04

]]></desc>
  </metadata>
  <trk>
    <name><![CDATA[1 févr. 2020 à 10:13:04]]></name>
    <cmt><![CDATA[1 févr. 2020 à 10:13:04]]></cmt>
    <trkseg>
      <trkpt lat="45.36571" lon="6.70788">
        <ele>1571</ele>
        <time>2020-02-01T09:13:04Z</time>
      </trkpt>
      <trkpt lat="45.36572" lon="6.70787">
        <ele>1571</ele>
        <time>2020-02-01T09:13:05Z</time>
      </trkpt>
      <trkpt lat="45.36542" lon="6.70758">
        <ele>1575</ele>
        <time>2020-02-01T09:20:46Z</time>
      </trkpt>
      <trkpt lat="45.36514" lon="6.70738">
        <ele>1578</ele>
        <time>2020-02-01T09:21:17Z</time>
      </trkpt>
      <trkpt lat="45.36492" lon="6.70723">
        <ele>1580</ele>
        <time>2020-02-01T09:21:49Z</time>
      </trkpt>
      <trkpt lat="45.36464" lon="6.70702">
        <ele>1583</ele>
        <time>2020-02-01T09:22:27Z</time>
      </trkpt>
      <trkpt lat="45.36425" lon="6.70686">
        <ele>1590</ele>
        <time>2020-02-01T09:40:38Z</time>
      </trkpt>
      <trkpt lat="45.36396" lon="6.70678">
        <ele>1591</ele>
        <time>2020-02-01T09:41:13Z</time>
      </trkpt>
      <trkpt lat="45.36368" lon="6.70671">
        <ele>1592</ele>
        <time>2020-02-01T09:41:40Z</time>
      </trkpt>
      <trkpt lat="45.36336" lon="6.70659">
        <ele>1594</ele>
        <time>2020-02-01T09:42:17Z</time>
      </trkpt>
      <trkpt lat="45.36272" lon="6.70641">
        <ele>1593</ele>
        <time>2020-02-01T09:43:18Z</time>
      </trkpt>
      <trkpt lat="45.36217" lon="6.70612">
        <ele>1593</ele>
        <time>2020-02-01T09:44:15Z</time>
      </trkpt>
      <trkpt lat="45.36186" lon="6.70606">
        <ele>1593</ele>
        <time>2020-02-01T09:44:46Z</time>
      </trkpt>
      <trkpt lat="45.36114" lon="6.7062">
        <ele>1594</ele>
        <time>2020-02-01T09:45:53Z</time>
      </trkpt>
      <trkpt lat="45.36093" lon="6.70656">
        <ele>1595</ele>
        <time>2020-02-01T09:46:41Z</time>
      </trkpt>
      <trkpt lat="45.36085" lon="6.70704">
        <ele>1598</ele>
        <time>2020-02-01T09:47:28Z</time>
      </trkpt>
      <trkpt lat="45.3607" lon="6.70705">
        <ele>1612</ele>
        <time>2020-02-01T09:49:52Z</time>
      </trkpt>
      <trkpt lat="45.36025" lon="6.70685">
        <ele>1614</ele>
        <time>2020-02-01T09:50:55Z</time>
      </trkpt>
      <trkpt lat="45.35977" lon="6.70667">
        <ele>1619</ele>
        <time>2020-02-01T09:51:54Z</time>
      </trkpt>
      <trkpt lat="45.35944" lon="6.70644">
        <ele>1620</ele>
        <time>2020-02-01T09:54:54Z</time>
      </trkpt>
      <trkpt lat="45.35912" lon="6.70618">
        <ele>1626</ele>
        <time>2020-02-01T09:55:41Z</time>
      </trkpt>
      <trkpt lat="45.35885" lon="6.70607">
        <ele>1626</ele>
        <time>2020-02-01T09:56:10Z</time>
      </trkpt>
      <trkpt lat="45.35853" lon="6.70596">
        <ele>1630</ele>
        <time>2020-02-01T09:56:48Z</time>
      </trkpt>
      <trkpt lat="45.35824" lon="6.7059">
        <ele>1633</ele>
        <time>2020-02-01T09:57:22Z</time>
      </trkpt>
      <trkpt lat="45.35784" lon="6.70569">
        <ele>1636</ele>
        <time>2020-02-01T09:58:09Z</time>
      </trkpt>
      <trkpt lat="45.35762" lon="6.70525">
        <ele>1640</ele>
        <time>2020-02-01T09:58:46Z</time>
      </trkpt>
      <trkpt lat="45.35741" lon="6.70497">
        <ele>1642</ele>
        <time>2020-02-01T09:59:22Z</time>
      </trkpt>
      <trkpt lat="45.35705" lon="6.70469">
        <ele>1647</ele>
        <time>2020-02-01T10:00:08Z</time>
      </trkpt>
      <trkpt lat="45.35691" lon="6.70464">
        <ele>1648</ele>
        <time>2020-02-01T10:00:23Z</time>
      </trkpt>
      <trkpt lat="45.35678" lon="6.70455">
        <ele>1649</ele>
        <time>2020-02-01T10:00:40Z</time>
      </trkpt>
      <trkpt lat="45.35656" lon="6.70448">
        <ele>1651</ele>
        <time>2020-02-01T10:01:04Z</time>
      </trkpt>
      <trkpt lat="45.35622" lon="6.7042">
        <ele>1655</ele>
        <time>2020-02-01T10:01:46Z</time>
      </trkpt>
      <trkpt lat="45.356" lon="6.70407">
        <ele>1659</ele>
        <time>2020-02-01T10:02:13Z</time>
      </trkpt>
      <trkpt lat="45.35574" lon="6.70411">
        <ele>1659</ele>
        <time>2020-02-01T10:07:26Z</time>
      </trkpt>
      <trkpt lat="45.35562" lon="6.70415">
        <ele>1661</ele>
        <time>2020-02-01T10:07:57Z</time>
      </trkpt>
      <trkpt lat="45.35545" lon="6.70426">
        <ele>1664</ele>
        <time>2020-02-01T10:13:08Z</time>
      </trkpt>
      <trkpt lat="45.35525" lon="6.70425">
        <ele>1666</ele>
        <time>2020-02-01T10:13:34Z</time>
      </trkpt>
      <trkpt lat="45.35493" lon="6.70419">
        <ele>1669</ele>
        <time>2020-02-01T10:14:15Z</time>
      </trkpt>
      <trkpt lat="45.35455" lon="6.70421">
        <ele>1673</ele>
        <time>2020-02-01T10:15:04Z</time>
      </trkpt>
      <trkpt lat="45.35441" lon="6.70414">
        <ele>1675</ele>
        <time>2020-02-01T10:15:29Z</time>
      </trkpt>
      <trkpt lat="45.35425" lon="6.70414">
        <ele>1675</ele>
        <time>2020-02-01T10:15:47Z</time>
      </trkpt>
      <trkpt lat="45.35406" lon="6.70402">
        <ele>1678</ele>
        <time>2020-02-01T10:16:19Z</time>
      </trkpt>
      <trkpt lat="45.35386" lon="6.70397">
        <ele>1680</ele>
        <time>2020-02-01T10:16:42Z</time>
      </trkpt>
      <trkpt lat="45.35372" lon="6.70405">
        <ele>1681</ele>
        <time>2020-02-01T10:16:55Z</time>
      </trkpt>
      <trkpt lat="45.35357" lon="6.70404">
        <ele>1683</ele>
        <time>2020-02-01T10:17:14Z</time>
      </trkpt>
      <trkpt lat="45.35325" lon="6.70415">
        <ele>1685</ele>
        <time>2020-02-01T10:17:49Z</time>
      </trkpt>
      <trkpt lat="45.35308" lon="6.70417">
        <ele>1687</ele>
        <time>2020-02-01T10:18:07Z</time>
      </trkpt>
      <trkpt lat="45.35292" lon="6.70416">
        <ele>1687</ele>
        <time>2020-02-01T10:18:25Z</time>
      </trkpt>
      <trkpt lat="45.35276" lon="6.70415">
        <ele>1691</ele>
        <time>2020-02-01T10:18:47Z</time>
      </trkpt>
      <trkpt lat="45.35259" lon="6.70408">
        <ele>1691</ele>
        <time>2020-02-01T10:19:06Z</time>
      </trkpt>
      <trkpt lat="45.35237" lon="6.70388">
        <ele>1693</ele>
        <time>2020-02-01T10:19:34Z</time>
      </trkpt>
      <trkpt lat="45.35199" lon="6.70374">
        <ele>1694</ele>
        <time>2020-02-01T10:20:16Z</time>
      </trkpt>
      <trkpt lat="45.3517" lon="6.7036">
        <ele>1696</ele>
        <time>2020-02-01T10:20:44Z</time>
      </trkpt>
      <trkpt lat="45.35142" lon="6.70374">
        <ele>1697</ele>
        <time>2020-02-01T10:21:05Z</time>
      </trkpt>
      <trkpt lat="45.35127" lon="6.70377">
        <ele>1698</ele>
        <time>2020-02-01T10:21:26Z</time>
      </trkpt>
      <trkpt lat="45.35078" lon="6.70386">
        <ele>1700</ele>
        <time>2020-02-01T10:22:06Z</time>
      </trkpt>
      <trkpt lat="45.3504" lon="6.70396">
        <ele>1701</ele>
        <time>2020-02-01T10:23:13Z</time>
      </trkpt>
      <trkpt lat="45.35021" lon="6.70401">
        <ele>1702</ele>
        <time>2020-02-01T10:23:43Z</time>
      </trkpt>
      <trkpt lat="45.35006" lon="6.70405">
        <ele>1702</ele>
        <time>2020-02-01T10:23:55Z</time>
      </trkpt>
      <trkpt lat="45.34972" lon="6.70405">
        <ele>1704</ele>
        <time>2020-02-01T10:24:27Z</time>
      </trkpt>
      <trkpt lat="45.34954" lon="6.7041">
        <ele>1704</ele>
        <time>2020-02-01T10:24:43Z</time>
      </trkpt>
      <trkpt lat="45.34939" lon="6.70411">
        <ele>1706</ele>
        <time>2020-02-01T10:24:57Z</time>
      </trkpt>
      <trkpt lat="45.34924" lon="6.70409">
        <ele>1705</ele>
        <time>2020-02-01T10:25:12Z</time>
      </trkpt>
      <trkpt lat="45.34893" lon="6.70402">
        <ele>1707</ele>
        <time>2020-02-01T10:25:46Z</time>
      </trkpt>
      <trkpt lat="45.34863" lon="6.70394">
        <ele>1708</ele>
        <time>2020-02-01T10:26:20Z</time>
      </trkpt>
      <trkpt lat="45.34848" lon="6.70394">
        <ele>1708</ele>
        <time>2020-02-01T10:26:32Z</time>
      </trkpt>
      <trkpt lat="45.34831" lon="6.70387">
        <ele>1707</ele>
        <time>2020-02-01T10:26:54Z</time>
      </trkpt>
      <trkpt lat="45.34812" lon="6.70383">
        <ele>1709</ele>
        <time>2020-02-01T10:27:13Z</time>
      </trkpt>
      <trkpt lat="45.34798" lon="6.70378">
        <ele>1708</ele>
        <time>2020-02-01T10:27:29Z</time>
      </trkpt>
      <trkpt lat="45.34785" lon="6.70363">
        <ele>1709</ele>
        <time>2020-02-01T10:27:47Z</time>
      </trkpt>
      <trkpt lat="45.34772" lon="6.70355">
        <ele>1708</ele>
        <time>2020-02-01T10:27:59Z</time>
      </trkpt>
      <trkpt lat="45.34759" lon="6.70338">
        <ele>1709</ele>
        <time>2020-02-01T10:28:20Z</time>
      </trkpt>
      <trkpt lat="45.34747" lon="6.70316">
        <ele>1708</ele>
        <time>2020-02-01T10:28:37Z</time>
      </trkpt>
      <trkpt lat="45.34729" lon="6.70271">
        <ele>1709</ele>
        <time>2020-02-01T10:29:19Z</time>
      </trkpt>
      <trkpt lat="45.34714" lon="6.70238">
        <ele>1711</ele>
        <time>2020-02-01T10:29:46Z</time>
      </trkpt>
      <trkpt lat="45.34708" lon="6.70222">
        <ele>1710</ele>
        <time>2020-02-01T10:30:26Z</time>
      </trkpt>
      <trkpt lat="45.34685" lon="6.70193">
        <ele>1715</ele>
        <time>2020-02-01T10:37:52Z</time>
      </trkpt>
      <trkpt lat="45.34665" lon="6.70162">
        <ele>1713</ele>
        <time>2020-02-01T10:38:29Z</time>
      </trkpt>
      <trkpt lat="45.34647" lon="6.70144">
        <ele>1714</ele>
        <time>2020-02-01T10:38:52Z</time>
      </trkpt>
      <trkpt lat="45.34635" lon="6.70134">
        <ele>1713</ele>
        <time>2020-02-01T10:39:09Z</time>
      </trkpt>
      <trkpt lat="45.34616" lon="6.70121">
        <ele>1716</ele>
        <time>2020-02-01T10:39:36Z</time>
      </trkpt>
      <trkpt lat="45.34598" lon="6.70106">
        <ele>1715</ele>
        <time>2020-02-01T10:39:58Z</time>
      </trkpt>
      <trkpt lat="45.34585" lon="6.70097">
        <ele>1717</ele>
        <time>2020-02-01T10:40:12Z</time>
      </trkpt>
      <trkpt lat="45.34554" lon="6.70074">
        <ele>1718</ele>
        <time>2020-02-01T10:40:54Z</time>
      </trkpt>
      <trkpt lat="45.34539" lon="6.70059">
        <ele>1721</ele>
        <time>2020-02-01T10:41:16Z</time>
      </trkpt>
      <trkpt lat="45.34523" lon="6.70046">
        <ele>1721</ele>
        <time>2020-02-01T10:41:34Z</time>
      </trkpt>
      <trkpt lat="45.34507" lon="6.70024">
        <ele>1719</ele>
        <time>2020-02-01T10:41:59Z</time>
      </trkpt>
      <trkpt lat="45.34476" lon="6.69985">
        <ele>1720</ele>
        <time>2020-02-01T10:42:48Z</time>
      </trkpt>
      <trkpt lat="45.34456" lon="6.69971">
        <ele>1722</ele>
        <time>2020-02-01T10:43:16Z</time>
      </trkpt>
      <trkpt lat="45.34423" lon="6.69952">
        <ele>1722</ele>
        <time>2020-02-01T10:43:53Z</time>
      </trkpt>
      <trkpt lat="45.34398" lon="6.6993">
        <ele>1722</ele>
        <time>2020-02-01T10:44:28Z</time>
      </trkpt>
      <trkpt lat="45.34379" lon="6.69902">
        <ele>1724</ele>
        <time>2020-02-01T10:45:06Z</time>
      </trkpt>
      <trkpt lat="45.34354" lon="6.69877">
        <ele>1726</ele>
        <time>2020-02-01T10:45:36Z</time>
      </trkpt>
      <trkpt lat="45.34335" lon="6.69846">
        <ele>1727</ele>
        <time>2020-02-01T10:46:03Z</time>
      </trkpt>
      <trkpt lat="45.34325" lon="6.69827">
        <ele>1727</ele>
        <time>2020-02-01T10:46:20Z</time>
      </trkpt>
      <trkpt lat="45.34308" lon="6.69806">
        <ele>1728</ele>
        <time>2020-02-01T10:46:45Z</time>
      </trkpt>
      <trkpt lat="45.34298" lon="6.69771">
        <ele>1729</ele>
        <time>2020-02-01T10:47:16Z</time>
      </trkpt>
      <trkpt lat="45.34288" lon="6.69715">
        <ele>1730</ele>
        <time>2020-02-01T10:48:03Z</time>
      </trkpt>
      <trkpt lat="45.34268" lon="6.69672">
        <ele>1733</ele>
        <time>2020-02-01T10:48:41Z</time>
      </trkpt>
      <trkpt lat="45.34224" lon="6.6965">
        <ele>1734</ele>
        <time>2020-02-01T10:49:31Z</time>
      </trkpt>
      <trkpt lat="45.34192" lon="6.69632">
        <ele>1737</ele>
        <time>2020-02-01T10:50:09Z</time>
      </trkpt>
      <trkpt lat="45.34157" lon="6.69609">
        <ele>1738</ele>
        <time>2020-02-01T10:50:52Z</time>
      </trkpt>
      <trkpt lat="45.34146" lon="6.69595">
        <ele>1738</ele>
        <time>2020-02-01T10:51:07Z</time>
      </trkpt>
      <trkpt lat="45.34131" lon="6.69582">
        <ele>1741</ele>
        <time>2020-02-01T10:51:31Z</time>
      </trkpt>
      <trkpt lat="45.34116" lon="6.69578">
        <ele>1742</ele>
        <time>2020-02-01T10:51:45Z</time>
      </trkpt>
      <trkpt lat="45.34101" lon="6.69576">
        <ele>1741</ele>
        <time>2020-02-01T10:52:00Z</time>
      </trkpt>
      <trkpt lat="45.34083" lon="6.69577">
        <ele>1742</ele>
        <time>2020-02-01T10:52:18Z</time>
      </trkpt>
      <trkpt lat="45.34069" lon="6.69584">
        <ele>1742</ele>
        <time>2020-02-01T10:52:31Z</time>
      </trkpt>
      <trkpt lat="45.34038" lon="6.69585">
        <ele>1743</ele>
        <time>2020-02-01T10:53:05Z</time>
      </trkpt>
      <trkpt lat="45.33987" lon="6.69561">
        <ele>1746</ele>
        <time>2020-02-01T10:54:00Z</time>
      </trkpt>
      <trkpt lat="45.33968" lon="6.69539">
        <ele>1748</ele>
        <time>2020-02-01T10:54:26Z</time>
      </trkpt>
      <trkpt lat="45.33938" lon="6.69517">
        <ele>1750</ele>
        <time>2020-02-01T10:55:07Z</time>
      </trkpt>
      <trkpt lat="45.33904" lon="6.6952">
        <ele>1750</ele>
        <time>2020-02-01T10:55:40Z</time>
      </trkpt>
      <trkpt lat="45.33879" lon="6.69508">
        <ele>1752</ele>
        <time>2020-02-01T10:56:11Z</time>
      </trkpt>
      <trkpt lat="45.33864" lon="6.69506">
        <ele>1754</ele>
        <time>2020-02-01T10:56:22Z</time>
      </trkpt>
      <trkpt lat="45.33842" lon="6.69498">
        <ele>1754</ele>
        <time>2020-02-01T10:56:50Z</time>
      </trkpt>
      <trkpt lat="45.33797" lon="6.69483">
        <ele>1759</ele>
        <time>2020-02-01T10:57:45Z</time>
      </trkpt>
      <trkpt lat="45.3378" lon="6.69491">
        <ele>1762</ele>
        <time>2020-02-01T11:03:55Z</time>
      </trkpt>
      <trkpt lat="45.33766" lon="6.69481">
        <ele>1766</ele>
        <time>2020-02-01T11:10:56Z</time>
      </trkpt>
      <trkpt lat="45.33752" lon="6.69469">
        <ele>1774</ele>
        <time>2020-02-01T11:11:23Z</time>
      </trkpt>
      <trkpt lat="45.3374" lon="6.69459">
        <ele>1775</ele>
        <time>2020-02-01T11:11:50Z</time>
      </trkpt>
      <trkpt lat="45.33732" lon="6.6944">
        <ele>1777</ele>
        <time>2020-02-01T11:12:13Z</time>
      </trkpt>
      <trkpt lat="45.33717" lon="6.69433">
        <ele>1780</ele>
        <time>2020-02-01T11:12:48Z</time>
      </trkpt>
      <trkpt lat="45.33703" lon="6.69434">
        <ele>1784</ele>
        <time>2020-02-01T11:13:11Z</time>
      </trkpt>
      <trkpt lat="45.33691" lon="6.69419">
        <ele>1786</ele>
        <time>2020-02-01T11:13:45Z</time>
      </trkpt>
      <trkpt lat="45.33681" lon="6.69447">
        <ele>1786</ele>
        <time>2020-02-01T11:14:36Z</time>
      </trkpt>
      <trkpt lat="45.33666" lon="6.69454">
        <ele>1786</ele>
        <time>2020-02-01T11:15:01Z</time>
      </trkpt>
      <trkpt lat="45.33654" lon="6.69442">
        <ele>1787</ele>
        <time>2020-02-01T11:15:38Z</time>
      </trkpt>
      <trkpt lat="45.33648" lon="6.6942">
        <ele>1790</ele>
        <time>2020-02-01T11:17:10Z</time>
      </trkpt>
      <trkpt lat="45.33629" lon="6.69421">
        <ele>1793</ele>
        <time>2020-02-01T11:19:13Z</time>
      </trkpt>
      <trkpt lat="45.33612" lon="6.69409">
        <ele>1794</ele>
        <time>2020-02-01T11:19:27Z</time>
      </trkpt>
      <trkpt lat="45.33593" lon="6.69396">
        <ele>1796</ele>
        <time>2020-02-01T11:19:55Z</time>
      </trkpt>
      <trkpt lat="45.33564" lon="6.69377">
        <ele>1803</ele>
        <time>2020-02-01T11:20:56Z</time>
      </trkpt>
      <trkpt lat="45.33546" lon="6.69365">
        <ele>1804</ele>
        <time>2020-02-01T11:21:47Z</time>
      </trkpt>
      <trkpt lat="45.33533" lon="6.69355">
        <ele>1813</ele>
        <time>2020-02-01T11:25:59Z</time>
      </trkpt>
      <trkpt lat="45.33507" lon="6.69346">
        <ele>1816</ele>
        <time>2020-02-01T11:26:32Z</time>
      </trkpt>
      <trkpt lat="45.33495" lon="6.69331">
        <ele>1817</ele>
        <time>2020-02-01T11:26:57Z</time>
      </trkpt>
      <trkpt lat="45.33489" lon="6.69311">
        <ele>1819</ele>
        <time>2020-02-01T11:27:17Z</time>
      </trkpt>
      <trkpt lat="45.3348" lon="6.6929">
        <ele>1820</ele>
        <time>2020-02-01T11:27:37Z</time>
      </trkpt>
      <trkpt lat="45.33468" lon="6.69273">
        <ele>1822</ele>
        <time>2020-02-01T11:28:00Z</time>
      </trkpt>
      <trkpt lat="45.33452" lon="6.69267">
        <ele>1824</ele>
        <time>2020-02-01T11:28:23Z</time>
      </trkpt>
      <trkpt lat="45.33436" lon="6.69247">
        <ele>1826</ele>
        <time>2020-02-01T11:28:58Z</time>
      </trkpt>
      <trkpt lat="45.33423" lon="6.69233">
        <ele>1829</ele>
        <time>2020-02-01T11:29:24Z</time>
      </trkpt>
      <trkpt lat="45.33404" lon="6.69212">
        <ele>1831</ele>
        <time>2020-02-01T11:29:58Z</time>
      </trkpt>
      <trkpt lat="45.33394" lon="6.69221">
        <ele>1837</ele>
        <time>2020-02-01T11:30:55Z</time>
      </trkpt>
      <trkpt lat="45.33406" lon="6.69257">
        <ele>1839</ele>
        <time>2020-02-01T11:31:26Z</time>
      </trkpt>
      <trkpt lat="45.33426" lon="6.69287">
        <ele>1843</ele>
        <time>2020-02-01T11:32:09Z</time>
      </trkpt>
      <trkpt lat="45.33453" lon="6.69334">
        <ele>1849</ele>
        <time>2020-02-01T11:33:02Z</time>
      </trkpt>
      <trkpt lat="45.33462" lon="6.69352">
        <ele>1847</ele>
        <time>2020-02-01T11:33:25Z</time>
      </trkpt>
      <trkpt lat="45.33467" lon="6.6937">
        <ele>1850</ele>
        <time>2020-02-01T11:33:45Z</time>
      </trkpt>
      <trkpt lat="45.33465" lon="6.69382">
        <ele>1856</ele>
        <time>2020-02-01T11:34:43Z</time>
      </trkpt>
      <trkpt lat="45.33437" lon="6.69361">
        <ele>1859</ele>
        <time>2020-02-01T11:35:22Z</time>
      </trkpt>
      <trkpt lat="45.33424" lon="6.69347">
        <ele>1861</ele>
        <time>2020-02-01T11:35:44Z</time>
      </trkpt>
      <trkpt lat="45.33412" lon="6.69335">
        <ele>1863</ele>
        <time>2020-02-01T11:36:03Z</time>
      </trkpt>
      <trkpt lat="45.33398" lon="6.69315">
        <ele>1866</ele>
        <time>2020-02-01T11:36:28Z</time>
      </trkpt>
      <trkpt lat="45.33383" lon="6.69306">
        <ele>1867</ele>
        <time>2020-02-01T11:36:51Z</time>
      </trkpt>
      <trkpt lat="45.33344" lon="6.69284">
        <ele>1873</ele>
        <time>2020-02-01T11:37:37Z</time>
      </trkpt>
      <trkpt lat="45.33335" lon="6.69267">
        <ele>1876</ele>
        <time>2020-02-01T11:37:58Z</time>
      </trkpt>
      <trkpt lat="45.33319" lon="6.69257">
        <ele>1878</ele>
        <time>2020-02-01T11:38:19Z</time>
      </trkpt>
      <trkpt lat="45.33315" lon="6.69248">
        <ele>1881</ele>
        <time>2020-02-01T11:42:04Z</time>
      </trkpt>
      <trkpt lat="45.33287" lon="6.69236">
        <ele>1880</ele>
        <time>2020-02-01T11:46:27Z</time>
      </trkpt>
      <trkpt lat="45.33256" lon="6.69235">
        <ele>1886</ele>
        <time>2020-02-01T11:46:53Z</time>
      </trkpt>
      <trkpt lat="45.33244" lon="6.69227">
        <ele>1888</ele>
        <time>2020-02-01T11:47:12Z</time>
      </trkpt>
      <trkpt lat="45.33214" lon="6.69234">
        <ele>1894</ele>
        <time>2020-02-01T11:47:51Z</time>
      </trkpt>
      <trkpt lat="45.33207" lon="6.69237">
        <ele>1894</ele>
        <time>2020-02-01T11:47:58Z</time>
      </trkpt>
      <trkpt lat="45.332" lon="6.69239">
        <ele>1897</ele>
        <time>2020-02-01T11:48:05Z</time>
      </trkpt>
      <trkpt lat="45.33191" lon="6.69242">
        <ele>1896</ele>
        <time>2020-02-01T11:48:15Z</time>
      </trkpt>
      <trkpt lat="45.33182" lon="6.69245">
        <ele>1896</ele>
        <time>2020-02-01T11:48:22Z</time>
      </trkpt>
      <trkpt lat="45.33175" lon="6.69249">
        <ele>1897</ele>
        <time>2020-02-01T11:48:28Z</time>
      </trkpt>
      <trkpt lat="45.33166" lon="6.6925">
        <ele>1898</ele>
        <time>2020-02-01T11:48:36Z</time>
      </trkpt>
      <trkpt lat="45.33159" lon="6.69253">
        <ele>1900</ele>
        <time>2020-02-01T11:48:42Z</time>
      </trkpt>
      <trkpt lat="45.33151" lon="6.69257">
        <ele>1899</ele>
        <time>2020-02-01T11:48:48Z</time>
      </trkpt>
      <trkpt lat="45.33143" lon="6.69262">
        <ele>1899</ele>
        <time>2020-02-01T11:48:53Z</time>
      </trkpt>
      <trkpt lat="45.33136" lon="6.69268">
        <ele>1902</ele>
        <time>2020-02-01T11:49:00Z</time>
      </trkpt>
      <trkpt lat="45.33128" lon="6.69274">
        <ele>1901</ele>
        <time>2020-02-01T11:49:14Z</time>
      </trkpt>
      <trkpt lat="45.33116" lon="6.69283">
        <ele>1903</ele>
        <time>2020-02-01T11:49:28Z</time>
      </trkpt>
      <trkpt lat="45.33113" lon="6.69288">
        <ele>1904</ele>
        <time>2020-02-01T11:50:13Z</time>
      </trkpt>
      <trkpt lat="45.33106" lon="6.69295">
        <ele>1902</ele>
        <time>2020-02-01T11:50:38Z</time>
      </trkpt>
      <trkpt lat="45.33099" lon="6.69302">
        <ele>1903</ele>
        <time>2020-02-01T11:50:43Z</time>
      </trkpt>
      <trkpt lat="45.33088" lon="6.69317">
        <ele>1903</ele>
        <time>2020-02-01T11:50:54Z</time>
      </trkpt>
      <trkpt lat="45.33071" lon="6.69332">
        <ele>1904</ele>
        <time>2020-02-01T11:51:13Z</time>
      </trkpt>
      <trkpt lat="45.33058" lon="6.69341">
        <ele>1903</ele>
        <time>2020-02-01T11:51:25Z</time>
      </trkpt>
      <trkpt lat="45.33038" lon="6.69338">
        <ele>1904</ele>
        <time>2020-02-01T11:51:35Z</time>
      </trkpt>
      <trkpt lat="45.33017" lon="6.69352">
        <ele>1901</ele>
        <time>2020-02-01T11:52:11Z</time>
      </trkpt>
      <trkpt lat="45.33003" lon="6.69372">
        <ele>1901</ele>
        <time>2020-02-01T11:52:23Z</time>
      </trkpt>
      <trkpt lat="45.32991" lon="6.69383">
        <ele>1902</ele>
        <time>2020-02-01T11:52:35Z</time>
      </trkpt>
      <trkpt lat="45.32983" lon="6.69402">
        <ele>1902</ele>
        <time>2020-02-01T11:52:46Z</time>
      </trkpt>
      <trkpt lat="45.32977" lon="6.6942">
        <ele>1903</ele>
        <time>2020-02-01T11:52:55Z</time>
      </trkpt>
      <trkpt lat="45.3296" lon="6.69402">
        <ele>1909</ele>
        <time>2020-02-01T11:53:23Z</time>
      </trkpt>
      <trkpt lat="45.32953" lon="6.69382">
        <ele>1910</ele>
        <time>2020-02-01T11:53:34Z</time>
      </trkpt>
      <trkpt lat="45.32953" lon="6.69359">
        <ele>1911</ele>
        <time>2020-02-01T11:53:46Z</time>
      </trkpt>
      <trkpt lat="45.32944" lon="6.69343">
        <ele>1912</ele>
        <time>2020-02-01T11:53:58Z</time>
      </trkpt>
      <trkpt lat="45.32919" lon="6.69345">
        <ele>1908</ele>
        <time>2020-02-01T11:54:10Z</time>
      </trkpt>
      <trkpt lat="45.32893" lon="6.69359">
        <ele>1909</ele>
        <time>2020-02-01T11:54:25Z</time>
      </trkpt>
      <trkpt lat="45.32878" lon="6.69379">
        <ele>1905</ele>
        <time>2020-02-01T11:56:22Z</time>
      </trkpt>
      <trkpt lat="45.32866" lon="6.69393">
        <ele>1903</ele>
        <time>2020-02-01T11:56:36Z</time>
      </trkpt>
      <trkpt lat="45.32856" lon="6.69406">
        <ele>1904</ele>
        <time>2020-02-01T11:58:55Z</time>
      </trkpt>
      <trkpt lat="45.32887" lon="6.69271">
        <ele>1903</ele>
        <time>2020-02-01T12:02:12Z</time>
      </trkpt>
      <trkpt lat="45.32892" lon="6.69339">
        <ele>1903</ele>
        <time>2020-02-01T12:03:18Z</time>
      </trkpt>
      <trkpt lat="45.32865" lon="6.69382">
        <ele>1911</ele>
        <time>2020-02-01T12:26:03Z</time>
      </trkpt>
      <trkpt lat="45.32868" lon="6.69401">
        <ele>1910</ele>
        <time>2020-02-01T12:28:13Z</time>
      </trkpt>
      <trkpt lat="45.32849" lon="6.69403">
        <ele>1907</ele>
        <time>2020-02-01T12:32:44Z</time>
      </trkpt>
      <trkpt lat="45.32831" lon="6.69399">
        <ele>1905</ele>
        <time>2020-02-01T12:34:29Z</time>
      </trkpt>
      <trkpt lat="45.3282" lon="6.69399">
        <ele>1905</ele>
        <time>2020-02-01T12:34:40Z</time>
      </trkpt>
      <trkpt lat="45.32813" lon="6.69401">
        <ele>1905</ele>
        <time>2020-02-01T12:34:46Z</time>
      </trkpt>
      <trkpt lat="45.32805" lon="6.69402">
        <ele>1906</ele>
        <time>2020-02-01T12:34:51Z</time>
      </trkpt>
      <trkpt lat="45.32798" lon="6.69403">
        <ele>1906</ele>
        <time>2020-02-01T12:34:58Z</time>
      </trkpt>
      <trkpt lat="45.32785" lon="6.69401">
        <ele>1909</ele>
        <time>2020-02-01T12:35:13Z</time>
      </trkpt>
      <trkpt lat="45.32778" lon="6.69405">
        <ele>1910</ele>
        <time>2020-02-01T12:35:21Z</time>
      </trkpt>
      <trkpt lat="45.32768" lon="6.69409">
        <ele>1910</ele>
        <time>2020-02-01T12:35:31Z</time>
      </trkpt>
      <trkpt lat="45.32762" lon="6.69414">
        <ele>1910</ele>
        <time>2020-02-01T12:35:37Z</time>
      </trkpt>
      <trkpt lat="45.32753" lon="6.6942">
        <ele>1909</ele>
        <time>2020-02-01T12:35:49Z</time>
      </trkpt>
      <trkpt lat="45.32745" lon="6.69426">
        <ele>1909</ele>
        <time>2020-02-01T12:35:57Z</time>
      </trkpt>
      <trkpt lat="45.32738" lon="6.69428">
        <ele>1910</ele>
        <time>2020-02-01T12:36:04Z</time>
      </trkpt>
      <trkpt lat="45.32728" lon="6.69427">
        <ele>1911</ele>
        <time>2020-02-01T12:36:18Z</time>
      </trkpt>
      <trkpt lat="45.32716" lon="6.69433">
        <ele>1913</ele>
        <time>2020-02-01T12:36:34Z</time>
      </trkpt>
      <trkpt lat="45.3271" lon="6.6944">
        <ele>1913</ele>
        <time>2020-02-01T12:36:39Z</time>
      </trkpt>
      <trkpt lat="45.32698" lon="6.69447">
        <ele>1913</ele>
        <time>2020-02-01T12:36:54Z</time>
      </trkpt>
      <trkpt lat="45.3268" lon="6.6945">
        <ele>1918</ele>
        <time>2020-02-01T12:37:24Z</time>
      </trkpt>
      <trkpt lat="45.32662" lon="6.69453">
        <ele>1918</ele>
        <time>2020-02-01T12:37:53Z</time>
      </trkpt>
      <trkpt lat="45.32655" lon="6.69456">
        <ele>1919</ele>
        <time>2020-02-01T12:38:01Z</time>
      </trkpt>
      <trkpt lat="45.32643" lon="6.69458">
        <ele>1923</ele>
        <time>2020-02-01T12:38:16Z</time>
      </trkpt>
      <trkpt lat="45.32636" lon="6.6946">
        <ele>1922</ele>
        <time>2020-02-01T12:38:23Z</time>
      </trkpt>
      <trkpt lat="45.32626" lon="6.69458">
        <ele>1922</ele>
        <time>2020-02-01T12:38:44Z</time>
      </trkpt>
      <trkpt lat="45.32617" lon="6.69455">
        <ele>1923</ele>
        <time>2020-02-01T12:38:56Z</time>
      </trkpt>
      <trkpt lat="45.32608" lon="6.69454">
        <ele>1927</ele>
        <time>2020-02-01T12:39:10Z</time>
      </trkpt>
      <trkpt lat="45.32596" lon="6.69461">
        <ele>1931</ele>
        <time>2020-02-01T12:39:26Z</time>
      </trkpt>
      <trkpt lat="45.3259" lon="6.69464">
        <ele>1933</ele>
        <time>2020-02-01T12:39:44Z</time>
      </trkpt>
      <trkpt lat="45.3259" lon="6.69474">
        <ele>1934</ele>
        <time>2020-02-01T12:39:57Z</time>
      </trkpt>
      <trkpt lat="45.32591" lon="6.69488">
        <ele>1937</ele>
        <time>2020-02-01T12:40:28Z</time>
      </trkpt>
      <trkpt lat="45.32596" lon="6.69498">
        <ele>1938</ele>
        <time>2020-02-01T12:40:49Z</time>
      </trkpt>
      <trkpt lat="45.32594" lon="6.69508">
        <ele>1945</ele>
        <time>2020-02-01T12:41:19Z</time>
      </trkpt>
      <trkpt lat="45.32589" lon="6.69515">
        <ele>1950</ele>
        <time>2020-02-01T12:42:09Z</time>
      </trkpt>
      <trkpt lat="45.32592" lon="6.69526">
        <ele>1952</ele>
        <time>2020-02-01T12:42:25Z</time>
      </trkpt>
      <trkpt lat="45.32591" lon="6.69532">
        <ele>1959</ele>
        <time>2020-02-01T12:44:40Z</time>
      </trkpt>
      <trkpt lat="45.32584" lon="6.69553">
        <ele>1939</ele>
        <time>2020-02-01T12:45:48Z</time>
      </trkpt>
      <trkpt lat="45.32586" lon="6.69576">
        <ele>1980</ele>
        <time>2020-02-01T12:51:11Z</time>
      </trkpt>
      <trkpt lat="45.32577" lon="6.6959">
        <ele>1991</ele>
        <time>2020-02-01T12:53:51Z</time>
      </trkpt>
      <trkpt lat="45.32583" lon="6.69593">
        <ele>1992</ele>
        <time>2020-02-01T12:54:01Z</time>
      </trkpt>
      <trkpt lat="45.32587" lon="6.69582">
        <ele>1993</ele>
        <time>2020-02-01T12:54:42Z</time>
      </trkpt>
      <trkpt lat="45.3257" lon="6.69598">
        <ele>1997</ele>
        <time>2020-02-01T12:55:16Z</time>
      </trkpt>
      <trkpt lat="45.32566" lon="6.69608">
        <ele>1998</ele>
        <time>2020-02-01T12:56:08Z</time>
      </trkpt>
      <trkpt lat="45.32573" lon="6.69609">
        <ele>2003</ele>
        <time>2020-02-01T12:57:03Z</time>
      </trkpt>
      <trkpt lat="45.32569" lon="6.69622">
        <ele>2006</ele>
        <time>2020-02-01T12:57:25Z</time>
      </trkpt>
      <trkpt lat="45.32571" lon="6.69633">
        <ele>2008</ele>
        <time>2020-02-01T12:57:57Z</time>
      </trkpt>
      <trkpt lat="45.32563" lon="6.69648">
        <ele>2009</ele>
        <time>2020-02-01T13:00:54Z</time>
      </trkpt>
      <trkpt lat="45.32543" lon="6.69668">
        <ele>2017</ele>
        <time>2020-02-01T13:01:22Z</time>
      </trkpt>
      <trkpt lat="45.32539" lon="6.69673">
        <ele>2015</ele>
        <time>2020-02-01T13:01:43Z</time>
      </trkpt>
      <trkpt lat="45.32529" lon="6.69684">
        <ele>2018</ele>
        <time>2020-02-01T13:01:54Z</time>
      </trkpt>
      <trkpt lat="45.32527" lon="6.69692">
        <ele>2017</ele>
        <time>2020-02-01T13:02:11Z</time>
      </trkpt>
      <trkpt lat="45.32524" lon="6.69699">
        <ele>2020</ele>
        <time>2020-02-01T13:02:18Z</time>
      </trkpt>
      <trkpt lat="45.32519" lon="6.69704">
        <ele>2021</ele>
        <time>2020-02-01T13:02:30Z</time>
      </trkpt>
      <trkpt lat="45.32516" lon="6.69711">
        <ele>2022</ele>
        <time>2020-02-01T13:02:36Z</time>
      </trkpt>
      <trkpt lat="45.32521" lon="6.69715">
        <ele>2023</ele>
        <time>2020-02-01T13:02:57Z</time>
      </trkpt>
      <trkpt lat="45.32528" lon="6.69717">
        <ele>2025</ele>
        <time>2020-02-01T13:03:17Z</time>
      </trkpt>
      <trkpt lat="45.32524" lon="6.69734">
        <ele>2031</ele>
        <time>2020-02-01T13:03:58Z</time>
      </trkpt>
      <trkpt lat="45.32526" lon="6.69742">
        <ele>2033</ele>
        <time>2020-02-01T13:04:18Z</time>
      </trkpt>
      <trkpt lat="45.32528" lon="6.6975">
        <ele>2033</ele>
        <time>2020-02-01T13:04:38Z</time>
      </trkpt>
      <trkpt lat="45.32531" lon="6.69753">
        <ele>2036</ele>
        <time>2020-02-01T13:05:11Z</time>
      </trkpt>
      <trkpt lat="45.32538" lon="6.69751">
        <ele>1981</ele>
        <time>2020-02-01T13:05:26Z</time>
      </trkpt>
      <trkpt lat="45.32543" lon="6.69747">
        <ele>2039</ele>
        <time>2020-02-01T13:05:41Z</time>
      </trkpt>
      <trkpt lat="45.3255" lon="6.69748">
        <ele>2038</ele>
        <time>2020-02-01T13:05:52Z</time>
      </trkpt>
      <trkpt lat="45.32555" lon="6.69746">
        <ele>2040</ele>
        <time>2020-02-01T13:06:07Z</time>
      </trkpt>
      <trkpt lat="45.32557" lon="6.69755">
        <ele>2039</ele>
        <time>2020-02-01T13:06:13Z</time>
      </trkpt>
      <trkpt lat="45.32556" lon="6.69765">
        <ele>2040</ele>
        <time>2020-02-01T13:06:31Z</time>
      </trkpt>
      <trkpt lat="45.32556" lon="6.69776">
        <ele>2042</ele>
        <time>2020-02-01T13:06:42Z</time>
      </trkpt>
      <trkpt lat="45.32564" lon="6.69775">
        <ele>2047</ele>
        <time>2020-02-01T13:07:19Z</time>
      </trkpt>
      <trkpt lat="45.32575" lon="6.69772">
        <ele>2052</ele>
        <time>2020-02-01T13:07:47Z</time>
      </trkpt>
      <trkpt lat="45.32581" lon="6.6977">
        <ele>2052</ele>
        <time>2020-02-01T13:08:12Z</time>
      </trkpt>
      <trkpt lat="45.32588" lon="6.69771">
        <ele>2052</ele>
        <time>2020-02-01T13:08:28Z</time>
      </trkpt>
      <trkpt lat="45.32593" lon="6.69767">
        <ele>2052</ele>
        <time>2020-02-01T13:08:40Z</time>
      </trkpt>
      <trkpt lat="45.32598" lon="6.69769">
        <ele>2058</ele>
        <time>2020-02-01T13:09:10Z</time>
      </trkpt>
      <trkpt lat="45.32606" lon="6.69771">
        <ele>2060</ele>
        <time>2020-02-01T13:09:28Z</time>
      </trkpt>
      <trkpt lat="45.32602" lon="6.69783">
        <ele>2060</ele>
        <time>2020-02-01T13:09:48Z</time>
      </trkpt>
      <trkpt lat="45.32601" lon="6.69793">
        <ele>2063</ele>
        <time>2020-02-01T13:10:08Z</time>
      </trkpt>
      <trkpt lat="45.32596" lon="6.69803">
        <ele>2063</ele>
        <time>2020-02-01T13:10:19Z</time>
      </trkpt>
      <trkpt lat="45.3259" lon="6.69807">
        <ele>2065</ele>
        <time>2020-02-01T13:10:28Z</time>
      </trkpt>
      <trkpt lat="45.32588" lon="6.69815">
        <ele>2065</ele>
        <time>2020-02-01T13:10:43Z</time>
      </trkpt>
      <trkpt lat="45.32591" lon="6.69823">
        <ele>2067</ele>
        <time>2020-02-01T13:11:00Z</time>
      </trkpt>
      <trkpt lat="45.326" lon="6.69828">
        <ele>2070</ele>
        <time>2020-02-01T13:11:21Z</time>
      </trkpt>
      <trkpt lat="45.32605" lon="6.69833">
        <ele>2069</ele>
        <time>2020-02-01T13:11:34Z</time>
      </trkpt>
      <trkpt lat="45.32611" lon="6.69839">
        <ele>2074</ele>
        <time>2020-02-01T13:11:54Z</time>
      </trkpt>
      <trkpt lat="45.32617" lon="6.69857">
        <ele>2078</ele>
        <time>2020-02-01T13:12:30Z</time>
      </trkpt>
      <trkpt lat="45.32622" lon="6.69864">
        <ele>2078</ele>
        <time>2020-02-01T13:12:45Z</time>
      </trkpt>
      <trkpt lat="45.32627" lon="6.69867">
        <ele>2082</ele>
        <time>2020-02-01T13:13:05Z</time>
      </trkpt>
      <trkpt lat="45.32634" lon="6.69874">
        <ele>2084</ele>
        <time>2020-02-01T13:13:31Z</time>
      </trkpt>
      <trkpt lat="45.32639" lon="6.69874">
        <ele>2087</ele>
        <time>2020-02-01T13:13:51Z</time>
      </trkpt>
      <trkpt lat="45.32644" lon="6.69882">
        <ele>2088</ele>
        <time>2020-02-01T13:14:06Z</time>
      </trkpt>
      <trkpt lat="45.32649" lon="6.69884">
        <ele>2089</ele>
        <time>2020-02-01T13:16:04Z</time>
      </trkpt>
      <trkpt lat="45.32649" lon="6.69892">
        <ele>2089</ele>
        <time>2020-02-01T13:18:18Z</time>
      </trkpt>
      <trkpt lat="45.32638" lon="6.69901">
        <ele>2090</ele>
        <time>2020-02-01T13:18:30Z</time>
      </trkpt>
      <trkpt lat="45.32633" lon="6.69906">
        <ele>2090</ele>
        <time>2020-02-01T13:18:36Z</time>
      </trkpt>
      <trkpt lat="45.32627" lon="6.69914">
        <ele>2089</ele>
        <time>2020-02-01T13:18:45Z</time>
      </trkpt>
      <trkpt lat="45.32625" lon="6.69909">
        <ele>2092</ele>
        <time>2020-02-01T13:20:25Z</time>
      </trkpt>
      <trkpt lat="45.32624" lon="6.69912">
        <ele>2092</ele>
        <time>2020-02-01T13:23:01Z</time>
      </trkpt>
      <trkpt lat="45.32624" lon="6.69914">
        <ele>2093</ele>
        <time>2020-02-01T13:25:57Z</time>
      </trkpt>
      <trkpt lat="45.32616" lon="6.69942">
        <ele>2127</ele>
        <time>2020-02-01T13:31:14Z</time>
      </trkpt>
      <trkpt lat="45.32613" lon="6.69961">
        <ele>2065</ele>
        <time>2020-02-01T13:31:20Z</time>
      </trkpt>
      <trkpt lat="45.32609" lon="6.69952">
        <ele>2101</ele>
        <time>2020-02-01T13:31:33Z</time>
      </trkpt>
      <trkpt lat="45.32611" lon="6.69931">
        <ele>2094</ele>
        <time>2020-02-01T13:31:39Z</time>
      </trkpt>
      <trkpt lat="45.32618" lon="6.69919">
        <ele>2093</ele>
        <time>2020-02-01T13:32:15Z</time>
      </trkpt>
      <trkpt lat="45.32623" lon="6.69917">
        <ele>2094</ele>
        <time>2020-02-01T13:32:27Z</time>
      </trkpt>
      <trkpt lat="45.32628" lon="6.69916">
        <ele>2093</ele>
        <time>2020-02-01T13:32:52Z</time>
      </trkpt>
      <trkpt lat="45.32628" lon="6.69915">
        <ele>2092</ele>
        <time>2020-02-01T13:34:47Z</time>
      </trkpt>
      <trkpt lat="45.32633" lon="6.69926">
        <ele>2091</ele>
        <time>2020-02-01T13:35:10Z</time>
      </trkpt>
      <trkpt lat="45.32638" lon="6.6993">
        <ele>2090</ele>
        <time>2020-02-01T13:35:12Z</time>
      </trkpt>
      <trkpt lat="45.32646" lon="6.69933">
        <ele>2091</ele>
        <time>2020-02-01T13:35:15Z</time>
      </trkpt>
      <trkpt lat="45.32651" lon="6.69932">
        <ele>2089</ele>
        <time>2020-02-01T13:35:20Z</time>
      </trkpt>
      <trkpt lat="45.32656" lon="6.69924">
        <ele>2088</ele>
        <time>2020-02-01T13:35:47Z</time>
      </trkpt>
      <trkpt lat="45.32704" lon="6.69919">
        <ele>2080</ele>
        <time>2020-02-01T13:35:54Z</time>
      </trkpt>
      <trkpt lat="45.32733" lon="6.69913">
        <ele>2078</ele>
        <time>2020-02-01T13:35:58Z</time>
      </trkpt>
      <trkpt lat="45.32743" lon="6.6991">
        <ele>2078</ele>
        <time>2020-02-01T13:36:00Z</time>
      </trkpt>
      <trkpt lat="45.32777" lon="6.69897">
        <ele>2072</ele>
        <time>2020-02-01T13:36:15Z</time>
      </trkpt>
      <trkpt lat="45.32781" lon="6.69895">
        <ele>2071</ele>
        <time>2020-02-01T13:36:37Z</time>
      </trkpt>
      <trkpt lat="45.32786" lon="6.69892">
        <ele>2071</ele>
        <time>2020-02-01T13:36:42Z</time>
      </trkpt>
      <trkpt lat="45.3279" lon="6.69886">
        <ele>2071</ele>
        <time>2020-02-01T13:36:48Z</time>
      </trkpt>
      <trkpt lat="45.32795" lon="6.6988">
        <ele>2069</ele>
        <time>2020-02-01T13:36:56Z</time>
      </trkpt>
      <trkpt lat="45.32801" lon="6.69873">
        <ele>2069</ele>
        <time>2020-02-01T13:37:07Z</time>
      </trkpt>
      <trkpt lat="45.32807" lon="6.69866">
        <ele>2071</ele>
        <time>2020-02-01T13:37:12Z</time>
      </trkpt>
      <trkpt lat="45.32812" lon="6.69861">
        <ele>2067</ele>
        <time>2020-02-01T13:37:17Z</time>
      </trkpt>
      <trkpt lat="45.32818" lon="6.69855">
        <ele>2070</ele>
        <time>2020-02-01T13:37:21Z</time>
      </trkpt>
      <trkpt lat="45.32847" lon="6.69837">
        <ele>2065</ele>
        <time>2020-02-01T13:37:32Z</time>
      </trkpt>
      <trkpt lat="45.32875" lon="6.69815">
        <ele>2062</ele>
        <time>2020-02-01T13:37:46Z</time>
      </trkpt>
      <trkpt lat="45.32881" lon="6.6981">
        <ele>2062</ele>
        <time>2020-02-01T13:38:21Z</time>
      </trkpt>
      <trkpt lat="45.32932" lon="6.69785">
        <ele>2054</ele>
        <time>2020-02-01T13:38:36Z</time>
      </trkpt>
      <trkpt lat="45.32937" lon="6.69788">
        <ele>2052</ele>
        <time>2020-02-01T13:38:59Z</time>
      </trkpt>
      <trkpt lat="45.32945" lon="6.69779">
        <ele>2052</ele>
        <time>2020-02-01T13:40:03Z</time>
      </trkpt>
      <trkpt lat="45.32973" lon="6.69774">
        <ele>2048</ele>
        <time>2020-02-01T13:40:12Z</time>
      </trkpt>
      <trkpt lat="45.32971" lon="6.69756">
        <ele>2048</ele>
        <time>2020-02-01T13:40:22Z</time>
      </trkpt>
      <trkpt lat="45.32981" lon="6.69748">
        <ele>2044</ele>
        <time>2020-02-01T13:40:32Z</time>
      </trkpt>
      <trkpt lat="45.32982" lon="6.69738">
        <ele>2035</ele>
        <time>2020-02-01T13:42:05Z</time>
      </trkpt>
      <trkpt lat="45.32977" lon="6.69731">
        <ele>2031</ele>
        <time>2020-02-01T13:42:07Z</time>
      </trkpt>
      <trkpt lat="45.32973" lon="6.69727">
        <ele>2031</ele>
        <time>2020-02-01T13:42:13Z</time>
      </trkpt>
      <trkpt lat="45.3297" lon="6.69721">
        <ele>2032</ele>
        <time>2020-02-01T13:45:27Z</time>
      </trkpt>
      <trkpt lat="45.32974" lon="6.69716">
        <ele>2031</ele>
        <time>2020-02-01T13:46:22Z</time>
      </trkpt>
      <trkpt lat="45.3298" lon="6.69713">
        <ele>2029</ele>
        <time>2020-02-01T13:46:42Z</time>
      </trkpt>
      <trkpt lat="45.32986" lon="6.69703">
        <ele>2026</ele>
        <time>2020-02-01T13:46:54Z</time>
      </trkpt>
      <trkpt lat="45.32982" lon="6.69696">
        <ele>2024</ele>
        <time>2020-02-01T13:47:03Z</time>
      </trkpt>
      <trkpt lat="45.32987" lon="6.69692">
        <ele>2032</ele>
        <time>2020-02-01T13:47:05Z</time>
      </trkpt>
      <trkpt lat="45.33025" lon="6.69655">
        <ele>2014</ele>
        <time>2020-02-01T13:47:25Z</time>
      </trkpt>
      <trkpt lat="45.33032" lon="6.69646">
        <ele>2011</ele>
        <time>2020-02-01T13:47:29Z</time>
      </trkpt>
      <trkpt lat="45.33029" lon="6.69638">
        <ele>1999</ele>
        <time>2020-02-01T13:47:44Z</time>
      </trkpt>
      <trkpt lat="45.3302" lon="6.69625">
        <ele>1997</ele>
        <time>2020-02-01T13:47:56Z</time>
      </trkpt>
      <trkpt lat="45.33007" lon="6.69614">
        <ele>1981</ele>
        <time>2020-02-01T13:48:20Z</time>
      </trkpt>
      <trkpt lat="45.32993" lon="6.69608">
        <ele>1986</ele>
        <time>2020-02-01T13:48:23Z</time>
      </trkpt>
      <trkpt lat="45.32977" lon="6.69605">
        <ele>1987</ele>
        <time>2020-02-01T13:48:27Z</time>
      </trkpt>
      <trkpt lat="45.32962" lon="6.69603">
        <ele>1985</ele>
        <time>2020-02-01T13:48:30Z</time>
      </trkpt>
      <trkpt lat="45.32948" lon="6.69603">
        <ele>1980</ele>
        <time>2020-02-01T13:48:35Z</time>
      </trkpt>
      <trkpt lat="45.32926" lon="6.69603">
        <ele>1976</ele>
        <time>2020-02-01T13:49:24Z</time>
      </trkpt>
      <trkpt lat="45.32912" lon="6.69595">
        <ele>1975</ele>
        <time>2020-02-01T13:49:32Z</time>
      </trkpt>
      <trkpt lat="45.32849" lon="6.69563">
        <ele>1958</ele>
        <time>2020-02-01T13:50:07Z</time>
      </trkpt>
      <trkpt lat="45.32835" lon="6.69559">
        <ele>1955</ele>
        <time>2020-02-01T13:50:14Z</time>
      </trkpt>
      <trkpt lat="45.32819" lon="6.6955">
        <ele>1954</ele>
        <time>2020-02-01T13:50:24Z</time>
      </trkpt>
      <trkpt lat="45.32804" lon="6.69565">
        <ele>1951</ele>
        <time>2020-02-01T13:51:53Z</time>
      </trkpt>
      <trkpt lat="45.32816" lon="6.69554">
        <ele>1950</ele>
        <time>2020-02-01T13:53:22Z</time>
      </trkpt>
      <trkpt lat="45.32802" lon="6.69533">
        <ele>1948</ele>
        <time>2020-02-01T13:56:10Z</time>
      </trkpt>
      <trkpt lat="45.32787" lon="6.69528">
        <ele>1926</ele>
        <time>2020-02-01T13:56:18Z</time>
      </trkpt>
      <trkpt lat="45.32771" lon="6.69521">
        <ele>1944</ele>
        <time>2020-02-01T13:56:42Z</time>
      </trkpt>
      <trkpt lat="45.32739" lon="6.69506">
        <ele>1935</ele>
        <time>2020-02-01T13:58:14Z</time>
      </trkpt>
      <trkpt lat="45.32726" lon="6.69494">
        <ele>1932</ele>
        <time>2020-02-01T13:58:18Z</time>
      </trkpt>
      <trkpt lat="45.32713" lon="6.69482">
        <ele>1930</ele>
        <time>2020-02-01T13:58:23Z</time>
      </trkpt>
      <trkpt lat="45.32689" lon="6.6948">
        <ele>1924</ele>
        <time>2020-02-01T13:58:38Z</time>
      </trkpt>
      <trkpt lat="45.32674" lon="6.69478">
        <ele>1924</ele>
        <time>2020-02-01T13:58:43Z</time>
      </trkpt>
      <trkpt lat="45.32664" lon="6.6946">
        <ele>1921</ele>
        <time>2020-02-01T13:58:55Z</time>
      </trkpt>
      <trkpt lat="45.32674" lon="6.6944">
        <ele>1919</ele>
        <time>2020-02-01T13:59:28Z</time>
      </trkpt>
      <trkpt lat="45.32667" lon="6.69411">
        <ele>1916</ele>
        <time>2020-02-01T13:59:33Z</time>
      </trkpt>
      <trkpt lat="45.32664" lon="6.69396">
        <ele>1917</ele>
        <time>2020-02-01T13:59:35Z</time>
      </trkpt>
      <trkpt lat="45.32664" lon="6.69379">
        <ele>1914</ele>
        <time>2020-02-01T13:59:38Z</time>
      </trkpt>
      <trkpt lat="45.32636" lon="6.69355">
        <ele>1910</ele>
        <time>2020-02-01T13:59:57Z</time>
      </trkpt>
      <trkpt lat="45.32631" lon="6.69344">
        <ele>1911</ele>
        <time>2020-02-01T14:00:00Z</time>
      </trkpt>
      <trkpt lat="45.32625" lon="6.69334">
        <ele>1910</ele>
        <time>2020-02-01T14:00:02Z</time>
      </trkpt>
      <trkpt lat="45.32623" lon="6.69322">
        <ele>1911</ele>
        <time>2020-02-01T14:00:11Z</time>
      </trkpt>
      <trkpt lat="45.32602" lon="6.6931">
        <ele>1908</ele>
        <time>2020-02-01T14:00:30Z</time>
      </trkpt>
      <trkpt lat="45.32596" lon="6.69306">
        <ele>1908</ele>
        <time>2020-02-01T14:00:33Z</time>
      </trkpt>
      <trkpt lat="45.32585" lon="6.69308">
        <ele>1908</ele>
        <time>2020-02-01T14:00:40Z</time>
      </trkpt>
      <trkpt lat="45.32577" lon="6.6931">
        <ele>1907</ele>
        <time>2020-02-01T14:00:43Z</time>
      </trkpt>
      <trkpt lat="45.3257" lon="6.69316">
        <ele>1906</ele>
        <time>2020-02-01T14:00:45Z</time>
      </trkpt>
      <trkpt lat="45.32563" lon="6.69317">
        <ele>1902</ele>
        <time>2020-02-01T14:00:47Z</time>
      </trkpt>
      <trkpt lat="45.32555" lon="6.69316">
        <ele>1899</ele>
        <time>2020-02-01T14:00:54Z</time>
      </trkpt>
      <trkpt lat="45.32545" lon="6.69314">
        <ele>1902</ele>
        <time>2020-02-01T14:00:57Z</time>
      </trkpt>
      <trkpt lat="45.32548" lon="6.69299">
        <ele>1898</ele>
        <time>2020-02-01T14:01:01Z</time>
      </trkpt>
      <trkpt lat="45.32557" lon="6.69292">
        <ele>1896</ele>
        <time>2020-02-01T14:01:03Z</time>
      </trkpt>
      <trkpt lat="45.32565" lon="6.69284">
        <ele>1893</ele>
        <time>2020-02-01T14:01:05Z</time>
      </trkpt>
      <trkpt lat="45.3257" lon="6.69267">
        <ele>1892</ele>
        <time>2020-02-01T14:01:07Z</time>
      </trkpt>
      <trkpt lat="45.32574" lon="6.69259">
        <ele>1892</ele>
        <time>2020-02-01T14:01:08Z</time>
      </trkpt>
      <trkpt lat="45.32579" lon="6.69253">
        <ele>1892</ele>
        <time>2020-02-01T14:01:09Z</time>
      </trkpt>
      <trkpt lat="45.32584" lon="6.69248">
        <ele>1892</ele>
        <time>2020-02-01T14:01:10Z</time>
      </trkpt>
      <trkpt lat="45.3259" lon="6.69243">
        <ele>1891</ele>
        <time>2020-02-01T14:01:11Z</time>
      </trkpt>
      <trkpt lat="45.32597" lon="6.69239">
        <ele>1891</ele>
        <time>2020-02-01T14:01:12Z</time>
      </trkpt>
      <trkpt lat="45.32603" lon="6.69235">
        <ele>1889</ele>
        <time>2020-02-01T14:01:13Z</time>
      </trkpt>
      <trkpt lat="45.32609" lon="6.69232">
        <ele>1888</ele>
        <time>2020-02-01T14:01:14Z</time>
      </trkpt>
      <trkpt lat="45.32615" lon="6.69229">
        <ele>1888</ele>
        <time>2020-02-01T14:01:16Z</time>
      </trkpt>
      <trkpt lat="45.32617" lon="6.69228">
        <ele>1889</ele>
        <time>2020-02-01T14:04:26Z</time>
      </trkpt>
      <trkpt lat="45.32628" lon="6.69233">
        <ele>1891</ele>
        <time>2020-02-01T14:04:59Z</time>
      </trkpt>
      <trkpt lat="45.32636" lon="6.69237">
        <ele>1891</ele>
        <time>2020-02-01T14:05:19Z</time>
      </trkpt>
      <trkpt lat="45.32642" lon="6.69239">
        <ele>1894</ele>
        <time>2020-02-01T14:05:35Z</time>
      </trkpt>
      <trkpt lat="45.32647" lon="6.69243">
        <ele>1895</ele>
        <time>2020-02-01T14:05:50Z</time>
      </trkpt>
      <trkpt lat="45.32652" lon="6.69252">
        <ele>1898</ele>
        <time>2020-02-01T14:06:05Z</time>
      </trkpt>
      <trkpt lat="45.32661" lon="6.69256">
        <ele>1899</ele>
        <time>2020-02-01T14:06:16Z</time>
      </trkpt>
      <trkpt lat="45.32666" lon="6.69256">
        <ele>1900</ele>
        <time>2020-02-01T14:06:24Z</time>
      </trkpt>
      <trkpt lat="45.32672" lon="6.69251">
        <ele>1900</ele>
        <time>2020-02-01T14:06:34Z</time>
      </trkpt>
      <trkpt lat="45.32675" lon="6.69241">
        <ele>1901</ele>
        <time>2020-02-01T14:06:44Z</time>
      </trkpt>
      <trkpt lat="45.32677" lon="6.69231">
        <ele>1901</ele>
        <time>2020-02-01T14:06:54Z</time>
      </trkpt>
      <trkpt lat="45.32679" lon="6.6922">
        <ele>1903</ele>
        <time>2020-02-01T14:07:05Z</time>
      </trkpt>
      <trkpt lat="45.32681" lon="6.69212">
        <ele>1903</ele>
        <time>2020-02-01T14:07:11Z</time>
      </trkpt>
      <trkpt lat="45.32685" lon="6.69203">
        <ele>1904</ele>
        <time>2020-02-01T14:07:20Z</time>
      </trkpt>
      <trkpt lat="45.32688" lon="6.69198">
        <ele>1904</ele>
        <time>2020-02-01T14:07:26Z</time>
      </trkpt>
      <trkpt lat="45.32689" lon="6.6919">
        <ele>1905</ele>
        <time>2020-02-01T14:07:33Z</time>
      </trkpt>
      <trkpt lat="45.32691" lon="6.69182">
        <ele>1906</ele>
        <time>2020-02-01T14:07:39Z</time>
      </trkpt>
      <trkpt lat="45.32692" lon="6.69174">
        <ele>1905</ele>
        <time>2020-02-01T14:07:44Z</time>
      </trkpt>
      <trkpt lat="45.32693" lon="6.69165">
        <ele>1905</ele>
        <time>2020-02-01T14:07:49Z</time>
      </trkpt>
      <trkpt lat="45.32693" lon="6.69156">
        <ele>1904</ele>
        <time>2020-02-01T14:07:53Z</time>
      </trkpt>
      <trkpt lat="45.32696" lon="6.6915">
        <ele>1906</ele>
        <time>2020-02-01T14:07:57Z</time>
      </trkpt>
      <trkpt lat="45.32698" lon="6.69143">
        <ele>1906</ele>
        <time>2020-02-01T14:08:02Z</time>
      </trkpt>
      <trkpt lat="45.32704" lon="6.69128">
        <ele>1910</ele>
        <time>2020-02-01T14:08:25Z</time>
      </trkpt>
      <trkpt lat="45.32709" lon="6.69125">
        <ele>1912</ele>
        <time>2020-02-01T14:08:41Z</time>
      </trkpt>
      <trkpt lat="45.3272" lon="6.69106">
        <ele>1914</ele>
        <time>2020-02-01T14:09:08Z</time>
      </trkpt>
      <trkpt lat="45.32724" lon="6.69101">
        <ele>1915</ele>
        <time>2020-02-01T14:09:13Z</time>
      </trkpt>
      <trkpt lat="45.32726" lon="6.69093">
        <ele>1916</ele>
        <time>2020-02-01T14:09:25Z</time>
      </trkpt>
      <trkpt lat="45.32732" lon="6.69088">
        <ele>1917</ele>
        <time>2020-02-01T14:09:29Z</time>
      </trkpt>
      <trkpt lat="45.32742" lon="6.69077">
        <ele>1921</ele>
        <time>2020-02-01T14:09:50Z</time>
      </trkpt>
      <trkpt lat="45.3275" lon="6.69073">
        <ele>1921</ele>
        <time>2020-02-01T14:10:01Z</time>
      </trkpt>
      <trkpt lat="45.32757" lon="6.69078">
        <ele>1921</ele>
        <time>2020-02-01T14:10:06Z</time>
      </trkpt>
      <trkpt lat="45.32761" lon="6.6908">
        <ele>1921</ele>
        <time>2020-02-01T14:10:11Z</time>
      </trkpt>
      <trkpt lat="45.32765" lon="6.69088">
        <ele>1922</ele>
        <time>2020-02-01T14:10:16Z</time>
      </trkpt>
      <trkpt lat="45.32771" lon="6.69092">
        <ele>1922</ele>
        <time>2020-02-01T14:10:25Z</time>
      </trkpt>
      <trkpt lat="45.3278" lon="6.69098">
        <ele>1923</ele>
        <time>2020-02-01T14:10:36Z</time>
      </trkpt>
      <trkpt lat="45.32785" lon="6.69111">
        <ele>1922</ele>
        <time>2020-02-01T14:10:52Z</time>
      </trkpt>
    </trkseg>
  </trk>
</gpx>